Terminal Aerodrome Forecast
Issued by NWS Atlanta, GA

Home | Current Version | Previous Version | Text Only | Print | Product List | Glossary On
Versions: 1 2 3 4 5 6 7 8 9 10 11 12 13 14 15 16 17 18 19 20 21 22 23 24 25 26 27 28 29 30 31 32
000
FTUS42 KFFC 030324 AAA
TAFAHN
TAF AMD
KAHN 030324Z 0303/0324 28004KT P6SM SCT025 BKN050
      TEMPO 0303/0307 -RA BKN025
     FM030700 05005KT 4SM BR OVC010
     FM031000 08005KT 2SM -RADZ BR OVC004
     FM031600 08006KT 3SM -DZ BR OVC005
     FM032100 09005KT 4SM BR OVC007=

USA.gov is the U.S. government's official web portal to all federal, state and local government web resources and services.